Aurora — V7BS9 — position and weather

sailwx.info

Track history (hours):
 
Tides and Currents Weather Stations Pressure Air Temp Water Temp Dewpoint Dewpoint Depression Visibility Wind Speed Wind Dir Waves Ship Positions

Aurora

Last reported at 2015-Jan-27 18:34 UTC. Time now 2015-Jan-27 18:59 UTC.
Position N 34°42' W 076°40'.

Length 170 m; draft 6.5 m.

Type: Tanker. MMSI: 538001356.

Date/timePositionNaut miles runAvg speedWind from/ knotsBaromVisibWave heightAir tempDewpointWater temp
2015-Jan-27 18:34N 34°42' W 076°40'2 1.9
2015-Jan-27 17:33N 34°43' W 076°42'0 0.0
2015-Jan-27 16:33N 34°43' W 076°42'0 0.0
2015-Jan-27 15:33N 34°43' W 076°42'0 0.0
2015-Jan-27 14:33N 34°43' W 076°42'0 0.0
2015-Jan-27 13:28N 34°43' W 076°42'0 0.0
2015-Jan-27 12:31N 34°43' W 076°42'0 0.0
2015-Jan-27 11:31N 34°43' W 076°42'0 0.0
2015-Jan-27 10:28N 34°43' W 076°42'0 0.0
2015-Jan-27 09:31N 34°43' W 076°42'0 0.0
2015-Jan-27 08:31N 34°43' W 076°42'0 0.0
2015-Jan-27 07:33N 34°43' W 076°42'0 0.0
2015-Jan-27 06:32N 34°43' W 076°42'0 0.0
2015-Jan-27 05:32N 34°43' W 076°42'0 0.0
2015-Jan-27 04:32N 34°43' W 076°42'0 0.0
2015-Jan-27 03:28N 34°43' W 076°42'0 0.0
2015-Jan-27 02:33N 34°43' W 076°42'0 0.0
2015-Jan-27 01:33N 34°43' W 076°42'0 0.0
2015-Jan-27 00:29N 34°43' W 076°42'0 0.0
2015-Jan-26 23:32N 34°43' W 076°42'0 0.0
2015-Jan-26 22:32N 34°43' W 076°42'0 0.0
2015-Jan-26 21:33N 34°43' W 076°42'0 0.0
2015-Jan-26 20:31N 34°43' W 076°42'0 0.0
2015-Jan-26 19:31N 34°43' W 076°42'0 0.0
2015-Jan-26 18:33N 34°43' W 076°42'0 0.0
2015-Jan-26 17:33N 34°43' W 076°42'0 0.0
2015-Jan-26 16:30N 34°43' W 076°42'0 0.0
2015-Jan-26 15:31N 34°43' W 076°42'0 0.0
2015-Jan-26 14:31N 34°43' W 076°42'0 0.0
2015-Jan-26 13:31N 34°43' W 076°42'2 2.1
2015-Jan-26 12:34N 34°42' W 076°40'4 3.9
2015-Jan-26 11:33N 34°38' W 076°40'1 0.6
2015-Jan-26 10:33N 34°38' W 076°39'0 0.0
2015-Jan-26 09:31N 34°38' W 076°39'0 0.0
2015-Jan-26 08:31N 34°38' W 076°39'0 0.0
2015-Jan-26 07:32N 34°38' W 076°39'0 0.1
2015-Jan-26 06:32N 34°38' W 076°39'0 0.0
2015-Jan-26 05:32N 34°38' W 076°39'0 0.0
2015-Jan-26 04:29N 34°38' W 076°39'0 0.0
2015-Jan-26 03:32N 34°38' W 076°39'0 0.0
2015-Jan-26 02:30N 34°38' W 076°39'0 0.0
2015-Jan-26 01:33N 34°38' W 076°39'0 0.0
2015-Jan-26 00:33N 34°38' W 076°39'0 0.0
2015-Jan-25 23:33N 34°38' W 076°39'0 0.0
2015-Jan-25 22:33N 34°38' W 076°39'0 0.0
2015-Jan-25 21:33N 34°38' W 076°39'0 0.0
2015-Jan-25 20:33N 34°38' W 076°39'0 0.0
2015-Jan-25 19:33N 34°38' W 076°39'0 0.0
2015-Jan-25 18:33N 34°38' W 076°39'0 0.0
2015-Jan-25 17:33N 34°38' W 076°39'0 0.0
2015-Jan-25 16:33N 34°38' W 076°39'0 0.0
2015-Jan-25 15:33N 34°38' W 076°39'0 0.0
2015-Jan-25 14:33N 34°38' W 076°39'0 0.0
2015-Jan-25 13:33N 34°38' W 076°39'0 0.0
2015-Jan-25 12:33N 34°38' W 076°39'0 0.0
2015-Jan-25 11:33N 34°38' W 076°39'0 0.0
2015-Jan-25 10:33N 34°38' W 076°39'0 0.0
2015-Jan-25 09:32N 34°38' W 076°39'0 0.0
2015-Jan-25 08:32N 34°38' W 076°39'0 0.0
2015-Jan-25 07:29N 34°38' W 076°39'0 0.0
2015-Jan-25 06:32N 34°38' W 076°39'0 0.0
2015-Jan-25 05:32N 34°38' W 076°39'0 0.0
2015-Jan-25 04:32N 34°38' W 076°39'0 0.0
2015-Jan-25 03:31N 34°38' W 076°39'0 0.0
2015-Jan-25 02:31N 34°38' W 076°39'0 0.0
2015-Jan-25 01:28N 34°38' W 076°39'0 0.0
2015-Jan-25 00:32N 34°38' W 076°39'0 0.0
2015-Jan-24 23:31N 34°38' W 076°39'0 0.0
2015-Jan-24 22:31N 34°38' W 076°39'0 0.0
2015-Jan-24 21:31N 34°38' W 076°39'0 0.0
2015-Jan-24 20:32N 34°38' W 076°39'0 0.0
2015-Jan-24 19:33N 34°38' W 076°39'0 0.0
2015-Jan-24 18:29N 34°38' W 076°39'3 3.1
2015-Jan-24 17:34N 34°35' W 076°40'13 5.5
2015-Jan-24 15:15N 34°23' W 076°44'5 1.0
2015-Jan-24 10:33N 34°27' W 076°42'3 3.1
2015-Jan-24 09:34N 34°30' W 076°41'4 3.7
2015-Jan-24 08:34N 34°34' W 076°40'4 4.2
2015-Jan-24 07:34N 34°38' W 076°39'1 0.8
2015-Jan-24 06:31N 34°39' W 076°39'0 0.4
2015-Jan-24 05:31N 34°38' W 076°39'0 0.1
2015-Jan-24 04:32N 34°38' W 076°39'0 0.0
2015-Jan-24 03:28N 34°38' W 076°39'0 0.0
2015-Jan-24 02:31N 34°38' W 076°39'0 0.0
2015-Jan-24 01:31N 34°38' W 076°39'0 0.0
2015-Jan-24 00:31N 34°38' W 076°39'0 0.0
2015-Jan-23 23:31N 34°38' W 076°39'0 0.1
2015-Jan-23 22:31N 34°38' W 076°39'0 0.1
2015-Jan-23 21:28N 34°38' W 076°39'0 0.0
2015-Jan-23 20:31N 34°38' W 076°39'0 0.0
2015-Jan-23 19:31N 34°38' W 076°39'0 0.0
2015-Jan-23 18:31N 34°38' W 076°39'0 0.0
2015-Jan-23 17:31N 34°38' W 076°39'0 0.0
2015-Jan-23 16:31N 34°38' W 076°39'0 0.0
2015-Jan-23 15:31N 34°38' W 076°39'0 0.0
2015-Jan-23 14:29N 34°38' W 076°39'0 0.0
2015-Jan-23 13:31N 34°38' W 076°39'0 0.0
2015-Jan-23 12:31N 34°38' W 076°39'0 0.0
2015-Jan-23 11:33N 34°38' W 076°39'0 0.0
2015-Jan-23 10:31N 34°38' W 076°39'0 0.0
2015-Jan-23 09:33N 34°38' W 076°39'0 0.0
2015-Jan-23 08:33N 34°38' W 076°39'0 0.0
2015-Jan-23 07:33N 34°38' W 076°39'0 0.0
2015-Jan-23 06:32N 34°38' W 076°39'0 0.0
2015-Jan-23 05:31N 34°38' W 076°39'0 0.0
2015-Jan-23 04:31N 34°38' W 076°39'0 0.0
2015-Jan-23 03:28N 34°38' W 076°39'0 0.0
2015-Jan-23 02:32N 34°38' W 076°39'0 0.1
2015-Jan-23 01:28N 34°38' W 076°39'0 0.0
2015-Jan-23 00:33N 34°38' W 076°39'0 0.0
2015-Jan-22 23:32N 34°38' W 076°39'0 0.0
2015-Jan-22 22:33N 34°38' W 076°39'0 0.0
2015-Jan-22 21:32N 34°38' W 076°39'0 0.0
2015-Jan-22 20:32N 34°38' W 076°39'0 0.1
2015-Jan-22 19:31N 34°38' W 076°39'0 0.1
2015-Jan-22 18:32N 34°38' W 076°39'0 0.0
2015-Jan-22 17:32N 34°38' W 076°39'0 0.0
2015-Jan-22 16:32N 34°38' W 076°39'0 0.1
2015-Jan-22 15:27N 34°38' W 076°39'0 0.0
2015-Jan-22 14:32N 34°38' W 076°39'0 0.0
2015-Jan-22 13:33N 34°38' W 076°39'0 0.0
2015-Jan-22 12:33N 34°38' W 076°39'0 0.0
2015-Jan-22 11:33N 34°38' W 076°39'0 0.0
2015-Jan-22 10:33N 34°38' W 076°39'0 0.0
2015-Jan-22 09:31N 34°38' W 076°39'0 0.0
2015-Jan-22 08:32N 34°38' W 076°39'0 0.0
2015-Jan-22 07:32N 34°38' W 076°39'0 0.0
2015-Jan-22 06:32N 34°38' W 076°39'0 0.0
2015-Jan-22 05:32N 34°38' W 076°39'0 0.0
2015-Jan-22 04:33N 34°38' W 076°39'0 0.0
2015-Jan-22 03:31N 34°38' W 076°39'0 0.0
2015-Jan-22 02:31N 34°38' W 076°39'0 0.0
2015-Jan-22 01:25N 34°38' W 076°39'0 0.1
2015-Jan-22 00:33N 34°38' W 076°39'0 0.1
2015-Jan-21 23:33N 34°38' W 076°39'0 0.0
2015-Jan-21 22:48N 34°38' W 076°39'0 0.1
2015-Jan-21 22:45N 34°38' W 076°39'0 0.1
2015-Jan-21 22:33N 34°38' W 076°39'0 0.0
2015-Jan-21 21:33N 34°38' W 076°39'0 0.0
2015-Jan-21 20:30N 34°38' W 076°39'0 0.0
2015-Jan-21 19:31N 34°38' W 076°39'0 0.0
2015-Jan-21 18:31N 34°38' W 076°39'0 0.0
2015-Jan-21 17:32N 34°38' W 076°39'0 0.0
2015-Jan-21 16:32N 34°38' W 076°39'0 0.0
2015-Jan-21 15:32N 34°38' W 076°39'0 0.0
2015-Jan-21 14:31N 34°38' W 076°39'0 0.0
2015-Jan-21 13:32N 34°38' W 076°39'0 0.0
2015-Jan-21 12:32N 34°38' W 076°39'0 0.0
2015-Jan-21 11:31N 34°38' W 076°39'0 0.0
2015-Jan-21 10:31N 34°38' W 076°39'0 0.0
2015-Jan-21 09:28N 34°38' W 076°39'0 0.0
2015-Jan-21 08:32N 34°38' W 076°39'0 0.0
2015-Jan-21 07:32N 34°38' W 076°39'0 0.0
2015-Jan-21 06:32N 34°38' W 076°39'0 0.0
2015-Jan-21 05:32N 34°38' W 076°39'0 0.0
2015-Jan-21 04:32N 34°38' W 076°39'0 0.0
2015-Jan-21 03:32N 34°38' W 076°39'0 0.0
2015-Jan-21 02:33N 34°38' W 076°39'0 0.0
2015-Jan-21 01:31N 34°38' W 076°39'0 0.0
2015-Jan-21 00:31N 34°38' W 076°39'0 0.0
2015-Jan-20 23:31N 34°38' W 076°39'0 0.0
2015-Jan-20 22:31N 34°38' W 076°39'0 0.0
2015-Jan-20 21:32N 34°38' W 076°39'0 0.0
2015-Jan-20 20:32N 34°38' W 076°39'0 0.0
2015-Jan-20 19:26N 34°38' W 076°39'0 0.0
2015-Jan-20 18:29N 34°38' W 076°39'0 0.0
2015-Jan-20 17:31N 34°38' W 076°39'0 0.0
2015-Jan-20 16:31N 34°38' W 076°39'0 0.0
2015-Jan-20 15:31N 34°38' W 076°39'0 0.0
2015-Jan-20 14:31N 34°38' W 076°39'0 0.0
2015-Jan-20 13:31N 34°38' W 076°39'0 0.0
2015-Jan-20 12:31N 34°38' W 076°39'0 0.0
2015-Jan-20 11:31N 34°38' W 076°39'0 0.0
2015-Jan-20 10:33N 34°38' W 076°39'0 0.0
2015-Jan-20 09:31N 34°38' W 076°39'0 0.0
2015-Jan-20 08:32N 34°38' W 076°39'0 0.0
2015-Jan-20 07:32N 34°38' W 076°39'0 0.0
2015-Jan-20 06:32N 34°38' W 076°39'0 0.0
2015-Jan-20 05:30N 34°38' W 076°39'0 0.0
2015-Jan-20 04:31N 34°38' W 076°39'0 0.0
2015-Jan-20 03:32N 34°38' W 076°39'0 0.0
2015-Jan-20 02:08N 34°38' W 076°39'0 0.0
2015-Jan-20 01:22N 34°38' W 076°39'0 0.0
2015-Jan-20 00:32N 34°38' W 076°39'0 0.0
2015-Jan-19 23:32N 34°38' W 076°39'0 0.0
2015-Jan-19 22:31N 34°38' W 076°39'0 0.0
2015-Jan-19 21:31N 34°38' W 076°39'0 0.0
2015-Jan-19 20:31N 34°38' W 076°39'0 0.0
2015-Jan-19 19:31N 34°38' W 076°39'0 0.1
2015-Jan-19 18:31N 34°38' W 076°39'0 0.0
2015-Jan-19 17:32N 34°38' W 076°39'0 0.0
2015-Jan-19 16:31N 34°38' W 076°39'0 0.0
2015-Jan-19 15:33N 34°38' W 076°39'0 0.0
2015-Jan-19 14:29N 34°38' W 076°39'0 0.0
2015-Jan-19 13:33N 34°38' W 076°39'0 0.0
2015-Jan-19 12:33N 34°38' W 076°39'0 0.0
2015-Jan-19 11:33N 34°38' W 076°39'0 0.0
2015-Jan-19 10:33N 34°38' W 076°39'0 0.0
2015-Jan-19 09:33N 34°38' W 076°39'0 0.0
2015-Jan-19 08:33N 34°38' W 076°39'0 0.0
2015-Jan-19 07:33N 34°38' W 076°39'0 0.0
2015-Jan-19 06:33N 34°38' W 076°39'0 0.0
2015-Jan-19 05:33N 34°38' W 076°39'0 0.0
2015-Jan-19 04:33N 34°38' W 076°39'0 0.0
2015-Jan-19 03:33N 34°38' W 076°39'0 0.0
2015-Jan-19 02:33N 34°38' W 076°39'0 0.0
2015-Jan-19 01:33N 34°38' W 076°39'0 0.0
2015-Jan-19 00:32N 34°38' W 076°39'0 0.0
2015-Jan-18 23:29N 34°38' W 076°39'0 0.0
2015-Jan-18 22:32N 34°38' W 076°39'0 0.0
2015-Jan-18 21:32N 34°38' W 076°39'0 0.0
2015-Jan-18 20:32N 34°38' W 076°39'0 0.0
2015-Jan-18 19:33N 34°38' W 076°39'0 0.0
2015-Jan-18 18:33N 34°38' W 076°39'0 0.0
2015-Jan-18 17:31N 34°38' W 076°39'0 0.0
2015-Jan-18 16:28N 34°38' W 076°39'0 0.1
2015-Jan-18 15:31N 34°38' W 076°39'0 0.1
2015-Jan-18 14:32N 34°38' W 076°39'0 0.0
2015-Jan-18 13:32N 34°38' W 076°39'0 0.0
2015-Jan-18 12:32N 34°38' W 076°39'0 0.0
2015-Jan-18 11:33N 34°38' W 076°39'0 0.0
2015-Jan-18 10:33N 34°38' W 076°39'0 0.0
2015-Jan-18 09:33N 34°38' W 076°39'0 0.0
2015-Jan-18 08:32N 34°38' W 076°39'0 0.0
2015-Jan-18 07:31N 34°38' W 076°39'0 0.0
2015-Jan-18 06:31N 34°38' W 076°39'0 0.0
2015-Jan-18 05:29N 34°38' W 076°39'0 0.0
2015-Jan-18 04:31N 34°38' W 076°39'0 0.0
2015-Jan-18 03:31N 34°38' W 076°39'0 0.0
2015-Jan-18 02:25N 34°38' W 076°39'0 0.1
2015-Jan-18 01:28N 34°38' W 076°39'0 0.0
2015-Jan-18 00:31N 34°38' W 076°39'0 0.0
2015-Jan-17 23:31N 34°38' W 076°39'0 0.0
2015-Jan-17 22:31N 34°38' W 076°39'0 0.0
2015-Jan-17 21:31N 34°38' W 076°39'0 0.0
2015-Jan-17 20:33N 34°38' W 076°39'0 0.0
2015-Jan-17 19:33N 34°38' W 076°39'  
Track history (hours):
 
Tides and Currents Weather Stations Pressure Air Temp Water Temp Dewpoint Dewpoint Depression Visibility Wind Speed Wind Dir Waves Ship Positions

Aurora

Last reported at 2015-Jan-27 18:34 UTC. Time now 2015-Jan-27 18:59 UTC.
Position N 34°42' W 076°40'.

Length 170 m; draft 6.5 m.

Type: Tanker. MMSI: 538001356.

Date/timePositionNaut miles runAvg speedWind from/ knotsBaromVisibWave heightAir tempDewpointWater temp
2015-Jan-27 18:34N 34°42' W 076°40'2 1.9
2015-Jan-27 17:33N 34°43' W 076°42'0 0.0
2015-Jan-27 16:33N 34°43' W 076°42'0 0.0
2015-Jan-27 15:33N 34°43' W 076°42'0 0.0
2015-Jan-27 14:33N 34°43' W 076°42'0 0.0
2015-Jan-27 13:28N 34°43' W 076°42'0 0.0
2015-Jan-27 12:31N 34°43' W 076°42'0 0.0
2015-Jan-27 11:31N 34°43' W 076°42'0 0.0
2015-Jan-27 10:28N 34°43' W 076°42'0 0.0
2015-Jan-27 09:31N 34°43' W 076°42'0 0.0
2015-Jan-27 08:31N 34°43' W 076°42'0 0.0
2015-Jan-27 07:33N 34°43' W 076°42'0 0.0
2015-Jan-27 06:32N 34°43' W 076°42'0 0.0
2015-Jan-27 05:32N 34°43' W 076°42'0 0.0
2015-Jan-27 04:32N 34°43' W 076°42'0 0.0
2015-Jan-27 03:28N 34°43' W 076°42'0 0.0
2015-Jan-27 02:33N 34°43' W 076°42'0 0.0
2015-Jan-27 01:33N 34°43' W 076°42'0 0.0
2015-Jan-27 00:29N 34°43' W 076°42'0 0.0
2015-Jan-26 23:32N 34°43' W 076°42'0 0.0
2015-Jan-26 22:32N 34°43' W 076°42'0 0.0
2015-Jan-26 21:33N 34°43' W 076°42'0 0.0
2015-Jan-26 20:31N 34°43' W 076°42'0 0.0
2015-Jan-26 19:31N 34°43' W 076°42'0 0.0
2015-Jan-26 18:33N 34°43' W 076°42'0 0.0
2015-Jan-26 17:33N 34°43' W 076°42'0 0.0
2015-Jan-26 16:30N 34°43' W 076°42'0 0.0
2015-Jan-26 15:31N 34°43' W 076°42'0 0.0
2015-Jan-26 14:31N 34°43' W 076°42'0 0.0
2015-Jan-26 13:31N 34°43' W 076°42'2 2.1
2015-Jan-26 12:34N 34°42' W 076°40'4 3.9
2015-Jan-26 11:33N 34°38' W 076°40'1 0.6
2015-Jan-26 10:33N 34°38' W 076°39'0 0.0
2015-Jan-26 09:31N 34°38' W 076°39'0 0.0
2015-Jan-26 08:31N 34°38' W 076°39'0 0.0
2015-Jan-26 07:32N 34°38' W 076°39'0 0.1
2015-Jan-26 06:32N 34°38' W 076°39'0 0.0
2015-Jan-26 05:32N 34°38' W 076°39'0 0.0
2015-Jan-26 04:29N 34°38' W 076°39'0 0.0
2015-Jan-26 03:32N 34°38' W 076°39'0 0.0
2015-Jan-26 02:30N 34°38' W 076°39'0 0.0
2015-Jan-26 01:33N 34°38' W 076°39'0 0.0
2015-Jan-26 00:33N 34°38' W 076°39'0 0.0
2015-Jan-25 23:33N 34°38' W 076°39'0 0.0
2015-Jan-25 22:33N 34°38' W 076°39'0 0.0
2015-Jan-25 21:33N 34°38' W 076°39'0 0.0
2015-Jan-25 20:33N 34°38' W 076°39'0 0.0
2015-Jan-25 19:33N 34°38' W 076°39'0 0.0
2015-Jan-25 18:33N 34°38' W 076°39'0 0.0
2015-Jan-25 17:33N 34°38' W 076°39'0 0.0
2015-Jan-25 16:33N 34°38' W 076°39'0 0.0
2015-Jan-25 15:33N 34°38' W 076°39'0 0.0
2015-Jan-25 14:33N 34°38' W 076°39'0 0.0
2015-Jan-25 13:33N 34°38' W 076°39'0 0.0
2015-Jan-25 12:33N 34°38' W 076°39'0 0.0
2015-Jan-25 11:33N 34°38' W 076°39'0 0.0
2015-Jan-25 10:33N 34°38' W 076°39'0 0.0
2015-Jan-25 09:32N 34°38' W 076°39'0 0.0
2015-Jan-25 08:32N 34°38' W 076°39'0 0.0
2015-Jan-25 07:29N 34°38' W 076°39'0 0.0
2015-Jan-25 06:32N 34°38' W 076°39'0 0.0
2015-Jan-25 05:32N 34°38' W 076°39'0 0.0
2015-Jan-25 04:32N 34°38' W 076°39'0 0.0
2015-Jan-25 03:31N 34°38' W 076°39'0 0.0
2015-Jan-25 02:31N 34°38' W 076°39'0 0.0
2015-Jan-25 01:28N 34°38' W 076°39'0 0.0
2015-Jan-25 00:32N 34°38' W 076°39'0 0.0
2015-Jan-24 23:31N 34°38' W 076°39'0 0.0
2015-Jan-24 22:31N 34°38' W 076°39'0 0.0
2015-Jan-24 21:31N 34°38' W 076°39'0 0.0
2015-Jan-24 20:32N 34°38' W 076°39'0 0.0
2015-Jan-24 19:33N 34°38' W 076°39'0 0.0
2015-Jan-24 18:29N 34°38' W 076°39'3 3.1
2015-Jan-24 17:34N 34°35' W 076°40'13 5.5
2015-Jan-24 15:15N 34°23' W 076°44'5 1.0
2015-Jan-24 10:33N 34°27' W 076°42'3 3.1
2015-Jan-24 09:34N 34°30' W 076°41'4 3.7
2015-Jan-24 08:34N 34°34' W 076°40'4 4.2
2015-Jan-24 07:34N 34°38' W 076°39'1 0.8
2015-Jan-24 06:31N 34°39' W 076°39'0 0.4
2015-Jan-24 05:31N 34°38' W 076°39'0 0.1
2015-Jan-24 04:32N 34°38' W 076°39'0 0.0
2015-Jan-24 03:28N 34°38' W 076°39'0 0.0
2015-Jan-24 02:31N 34°38' W 076°39'0 0.0
2015-Jan-24 01:31N 34°38' W 076°39'0 0.0
2015-Jan-24 00:31N 34°38' W 076°39'0 0.0
2015-Jan-23 23:31N 34°38' W 076°39'0 0.1
2015-Jan-23 22:31N 34°38' W 076°39'0 0.1
2015-Jan-23 21:28N 34°38' W 076°39'0 0.0
2015-Jan-23 20:31N 34°38' W 076°39'0 0.0
2015-Jan-23 19:31N 34°38' W 076°39'0 0.0
2015-Jan-23 18:31N 34°38' W 076°39'0 0.0
2015-Jan-23 17:31N 34°38' W 076°39'0 0.0
2015-Jan-23 16:31N 34°38' W 076°39'0 0.0
2015-Jan-23 15:31N 34°38' W 076°39'0 0.0
2015-Jan-23 14:29N 34°38' W 076°39'0 0.0
2015-Jan-23 13:31N 34°38' W 076°39'0 0.0
2015-Jan-23 12:31N 34°38' W 076°39'0 0.0
2015-Jan-23 11:33N 34°38' W 076°39'0 0.0
2015-Jan-23 10:31N 34°38' W 076°39'0 0.0
2015-Jan-23 09:33N 34°38' W 076°39'0 0.0
2015-Jan-23 08:33N 34°38' W 076°39'0 0.0
2015-Jan-23 07:33N 34°38' W 076°39'0 0.0
2015-Jan-23 06:32N 34°38' W 076°39'0 0.0
2015-Jan-23 05:31N 34°38' W 076°39'0 0.0
2015-Jan-23 04:31N 34°38' W 076°39'0 0.0
2015-Jan-23 03:28N 34°38' W 076°39'0 0.0
2015-Jan-23 02:32N 34°38' W 076°39'0 0.1
2015-Jan-23 01:28N 34°38' W 076°39'0 0.0
2015-Jan-23 00:33N 34°38' W 076°39'0 0.0
2015-Jan-22 23:32N 34°38' W 076°39'0 0.0
2015-Jan-22 22:33N 34°38' W 076°39'0 0.0
2015-Jan-22 21:32N 34°38' W 076°39'0 0.0
2015-Jan-22 20:32N 34°38' W 076°39'0 0.1
2015-Jan-22 19:31N 34°38' W 076°39'0 0.1
2015-Jan-22 18:32N 34°38' W 076°39'0 0.0
2015-Jan-22 17:32N 34°38' W 076°39'0 0.0
2015-Jan-22 16:32N 34°38' W 076°39'0 0.1
2015-Jan-22 15:27N 34°38' W 076°39'0 0.0
2015-Jan-22 14:32N 34°38' W 076°39'0 0.0
2015-Jan-22 13:33N 34°38' W 076°39'0 0.0
2015-Jan-22 12:33N 34°38' W 076°39'0 0.0
2015-Jan-22 11:33N 34°38' W 076°39'0 0.0
2015-Jan-22 10:33N 34°38' W 076°39'0 0.0
2015-Jan-22 09:31N 34°38' W 076°39'0 0.0
2015-Jan-22 08:32N 34°38' W 076°39'0 0.0
2015-Jan-22 07:32N 34°38' W 076°39'0 0.0
2015-Jan-22 06:32N 34°38' W 076°39'0 0.0
2015-Jan-22 05:32N 34°38' W 076°39'0 0.0
2015-Jan-22 04:33N 34°38' W 076°39'0 0.0
2015-Jan-22 03:31N 34°38' W 076°39'0 0.0
2015-Jan-22 02:31N 34°38' W 076°39'0 0.0
2015-Jan-22 01:25N 34°38' W 076°39'0 0.1
2015-Jan-22 00:33N 34°38' W 076°39'0 0.1
2015-Jan-21 23:33N 34°38' W 076°39'0 0.0
2015-Jan-21 22:48N 34°38' W 076°39'0 0.1
2015-Jan-21 22:45N 34°38' W 076°39'0 0.1
2015-Jan-21 22:33N 34°38' W 076°39'0 0.0
2015-Jan-21 21:33N 34°38' W 076°39'0 0.0
2015-Jan-21 20:30N 34°38' W 076°39'0 0.0
2015-Jan-21 19:31N 34°38' W 076°39'0 0.0
2015-Jan-21 18:31N 34°38' W 076°39'0 0.0
2015-Jan-21 17:32N 34°38' W 076°39'0 0.0
2015-Jan-21 16:32N 34°38' W 076°39'0 0.0
2015-Jan-21 15:32N 34°38' W 076°39'0 0.0
2015-Jan-21 14:31N 34°38' W 076°39'0 0.0
2015-Jan-21 13:32N 34°38' W 076°39'0 0.0
2015-Jan-21 12:32N 34°38' W 076°39'0 0.0
2015-Jan-21 11:31N 34°38' W 076°39'0 0.0
2015-Jan-21 10:31N 34°38' W 076°39'0 0.0
2015-Jan-21 09:28N 34°38' W 076°39'0 0.0
2015-Jan-21 08:32N 34°38' W 076°39'0 0.0
2015-Jan-21 07:32N 34°38' W 076°39'0 0.0
2015-Jan-21 06:32N 34°38' W 076°39'0 0.0
2015-Jan-21 05:32N 34°38' W 076°39'0 0.0
2015-Jan-21 04:32N 34°38' W 076°39'0 0.0
2015-Jan-21 03:32N 34°38' W 076°39'0 0.0
2015-Jan-21 02:33N 34°38' W 076°39'0 0.0
2015-Jan-21 01:31N 34°38' W 076°39'0 0.0
2015-Jan-21 00:31N 34°38' W 076°39'0 0.0
2015-Jan-20 23:31N 34°38' W 076°39'0 0.0
2015-Jan-20 22:31N 34°38' W 076°39'0 0.0
2015-Jan-20 21:32N 34°38' W 076°39'0 0.0
2015-Jan-20 20:32N 34°38' W 076°39'0 0.0
2015-Jan-20 19:26N 34°38' W 076°39'0 0.0
2015-Jan-20 18:29N 34°38' W 076°39'0 0.0
2015-Jan-20 17:31N 34°38' W 076°39'0 0.0
2015-Jan-20 16:31N 34°38' W 076°39'0 0.0
2015-Jan-20 15:31N 34°38' W 076°39'0 0.0
2015-Jan-20 14:31N 34°38' W 076°39'0 0.0
2015-Jan-20 13:31N 34°38' W 076°39'0 0.0
2015-Jan-20 12:31N 34°38' W 076°39'0 0.0
2015-Jan-20 11:31N 34°38' W 076°39'0 0.0
2015-Jan-20 10:33N 34°38' W 076°39'0 0.0
2015-Jan-20 09:31N 34°38' W 076°39'0 0.0
2015-Jan-20 08:32N 34°38' W 076°39'0 0.0
2015-Jan-20 07:32N 34°38' W 076°39'0 0.0
2015-Jan-20 06:32N 34°38' W 076°39'0 0.0
2015-Jan-20 05:30N 34°38' W 076°39'0 0.0
2015-Jan-20 04:31N 34°38' W 076°39'0 0.0
2015-Jan-20 03:32N 34°38' W 076°39'0 0.0
2015-Jan-20 02:08N 34°38' W 076°39'0 0.0
2015-Jan-20 01:22N 34°38' W 076°39'0 0.0
2015-Jan-20 00:32N 34°38' W 076°39'0 0.0
2015-Jan-19 23:32N 34°38' W 076°39'0 0.0
2015-Jan-19 22:31N 34°38' W 076°39'0 0.0
2015-Jan-19 21:31N 34°38' W 076°39'0 0.0
2015-Jan-19 20:31N 34°38' W 076°39'0 0.0
2015-Jan-19 19:31N 34°38' W 076°39'0 0.1
2015-Jan-19 18:31N 34°38' W 076°39'0 0.0
2015-Jan-19 17:32N 34°38' W 076°39'0 0.0
2015-Jan-19 16:31N 34°38' W 076°39'0 0.0
2015-Jan-19 15:33N 34°38' W 076°39'0 0.0
2015-Jan-19 14:29N 34°38' W 076°39'0 0.0
2015-Jan-19 13:33N 34°38' W 076°39'0 0.0
2015-Jan-19 12:33N 34°38' W 076°39'0 0.0
2015-Jan-19 11:33N 34°38' W 076°39'0 0.0
2015-Jan-19 10:33N 34°38' W 076°39'0 0.0
2015-Jan-19 09:33N 34°38' W 076°39'0 0.0
2015-Jan-19 08:33N 34°38' W 076°39'0 0.0
2015-Jan-19 07:33N 34°38' W 076°39'0 0.0
2015-Jan-19 06:33N 34°38' W 076°39'0 0.0
2015-Jan-19 05:33N 34°38' W 076°39'0 0.0
2015-Jan-19 04:33N 34°38' W 076°39'0 0.0
2015-Jan-19 03:33N 34°38' W 076°39'0 0.0
2015-Jan-19 02:33N 34°38' W 076°39'0 0.0
2015-Jan-19 01:33N 34°38' W 076°39'0 0.0
2015-Jan-19 00:32N 34°38' W 076°39'0 0.0
2015-Jan-18 23:29N 34°38' W 076°39'0 0.0
2015-Jan-18 22:32N 34°38' W 076°39'0 0.0
2015-Jan-18 21:32N 34°38' W 076°39'0 0.0
2015-Jan-18 20:32N 34°38' W 076°39'0 0.0
2015-Jan-18 19:33N 34°38' W 076°39'0 0.0
2015-Jan-18 18:33N 34°38' W 076°39'0 0.0
2015-Jan-18 17:31N 34°38' W 076°39'0 0.0
2015-Jan-18 16:28N 34°38' W 076°39'0 0.1
2015-Jan-18 15:31N 34°38' W 076°39'0 0.1
2015-Jan-18 14:32N 34°38' W 076°39'0 0.0
2015-Jan-18 13:32N 34°38' W 076°39'0 0.0
2015-Jan-18 12:32N 34°38' W 076°39'0 0.0
2015-Jan-18 11:33N 34°38' W 076°39'0 0.0
2015-Jan-18 10:33N 34°38' W 076°39'0 0.0
2015-Jan-18 09:33N 34°38' W 076°39'0 0.0
2015-Jan-18 08:32N 34°38' W 076°39'0 0.0
2015-Jan-18 07:31N 34°38' W 076°39'0 0.0
2015-Jan-18 06:31N 34°38' W 076°39'0 0.0
2015-Jan-18 05:29N 34°38' W 076°39'0 0.0
2015-Jan-18 04:31N 34°38' W 076°39'0 0.0
2015-Jan-18 03:31N 34°38' W 076°39'0 0.0
2015-Jan-18 02:25N 34°38' W 076°39'0 0.1
2015-Jan-18 01:28N 34°38' W 076°39'0 0.0
2015-Jan-18 00:31N 34°38' W 076°39'0 0.0
2015-Jan-17 23:31N 34°38' W 076°39'0 0.0
2015-Jan-17 22:31N 34°38' W 076°39'0 0.0
2015-Jan-17 21:31N 34°38' W 076°39'0 0.0
2015-Jan-17 20:33N 34°38' W 076°39'0 0.0
2015-Jan-17 19:33N 34°38' W 076°39'  

Dump ship's entire track history